Time,TemperatureF,DewpointF,PressureIn,WindDirection,WindDirectionDegrees,WindSpeedMPH,WindSpeedGustMPH,Humidity,HourlyPrecipIn,Conditions,Clouds,dailyrainin,SoftwareType,DateUTC
2013-08-15 00:00:00,83.8,57.7,27.17,East,86,5.8,8.7,41,0.00,,---,0.00,VWS V13.01,2013-08-15 07:00:00,
2013-08-15 00:06:00,83.8,57.7,27.20,East,93,8.1,13.2,41,0.00,,---,0.00,VWS V13.01,2013-08-15 07:06:00,
2013-08-15 00:11:00,84.0,57.8,27.20,ENE,73,7.6,10.5,41,0.00,,---,0.00,VWS V13.01,2013-08-15 07:11:00,
2013-08-15 00:16:00,84.0,57.8,27.20,SE,130,8.7,10.5,41,0.00,,---,0.00,VWS V13.01,2013-08-15 07:16:00,
2013-08-15 00:21:00,84.0,57.8,27.20,East,97,8.7,8.7,41,0.00,,---,0.00,VWS V13.01,2013-08-15 07:21:00,
2013-08-15 00:26:00,84.0,57.8,27.20,SE,128,5.4,8.1,41,0.00,,---,0.00,VWS V13.01,2013-08-15 07:26:00,
2013-08-15 00:31:00,84.0,57.8,27.20,ENE,74,5.8,8.3,41,0.00,,---,0.00,VWS V13.01,2013-08-15 07:31:00,
2013-08-15 00:37:00,83.8,57.7,27.20,ESE,103,4.9,7.6,41,0.00,,---,0.00,VWS V13.01,2013-08-15 07:37:00,
2013-08-15 00:42:00,83.7,57.5,27.20,ESE,116,5.8,5.8,41,0.00,,---,0.00,VWS V13.01,2013-08-15 07:42:00,
2013-08-15 00:47:00,83.7,57.5,27.20,East,90,4.0,5.4,41,0.00,,---,0.00,VWS V13.01,2013-08-15 07:47:00,
2013-08-15 00:52:00,83.5,57.3,27.20,East,99,4.0,6.3,41,0.00,,---,0.00,VWS V13.01,2013-08-15 07:52:00,
2013-08-15 00:57:00,83.5,57.3,27.20,ESE,112,5.4,6.3,41,0.00,,---,0.00,VWS V13.01,2013-08-15 07:57:00,
2013-08-15 01:02:00,83.3,57.2,27.20,East,89,3.1,3.6,41,0.00,,---,0.00,VWS V13.01,2013-08-15 08:02:00,
2013-08-15 01:08:00,83.3,57.2,27.17,SE,137,5.8,8.1,41,0.00,,---,0.00,VWS V13.01,2013-08-15 08:08:00,
2013-08-15 01:13:00,83.1,57.0,27.17,SE,125,0.0,4.0,41,0.00,,---,0.00,VWS V13.01,2013-08-15 08:13:00,
2013-08-15 01:18:00,83.1,57.0,27.17,ESE,121,4.9,5.4,41,0.00,,---,0.00,VWS V13.01,2013-08-15 08:18:00,
2013-08-15 01:24:00,82.9,56.8,27.17,East,99,0.0,4.0,41,0.00,,---,0.00,VWS V13.01,2013-08-15 08:24:00,
2013-08-15 01:29:00,82.8,56.7,27.17,East,101,3.6,3.6,41,0.00,,---,0.00,VWS V13.01,2013-08-15 08:29:00,
2013-08-15 01:34:00,82.8,56.7,27.17,ESE,102,5.4,5.4,41,0.00,,---,0.00,VWS V13.01,2013-08-15 08:34:00,
2013-08-15 01:39:00,82.8,56.7,27.17,East,98,2.7,3.1,41,0.00,,---,0.00,VWS V13.01,2013-08-15 08:39:00,
2013-08-15 01:45:00,82.6,56.5,27.17,East,95,2.2,4.5,41,0.00,,---,0.00,VWS V13.01,2013-08-15 08:45:00,
2013-08-15 01:50:00,82.6,56.5,27.17,East,92,3.6,4.0,41,0.00,,---,0.00,VWS V13.01,2013-08-15 08:50:00,
2013-08-15 01:55:00,82.4,56.4,27.17,East,88,0.0,0.0,41,0.00,,---,0.00,VWS V13.01,2013-08-15 08:55:00,
2013-08-15 02:01:00,82.4,56.4,27.17,East,93,3.1,4.0,41,0.00,,---,0.00,VWS V13.01,2013-08-15 09:01:00,
2013-08-15 02:06:00,82.4,56.4,27.17,East,84,5.8,5.8,41,0.00,,---,0.00,VWS V13.01,2013-08-15 09:06:00,
2013-08-15 02:11:00,82.4,56.4,27.17,ENE,69,3.6,5.4,41,0.00,,---,0.00,VWS V13.01,2013-08-15 09:11:00,
2013-08-15 02:16:00,82.4,56.4,27.17,ENE,75,2.7,5.4,41,0.00,,---,0.00,VWS V13.01,2013-08-15 09:16:00,
2013-08-15 02:21:00,82.2,56.2,27.17,ENE,75,0.0,0.0,41,0.00,,---,0.00,VWS V13.01,2013-08-15 09:21:00,
2013-08-15 02:26:00,82.2,56.2,27.17,East,79,3.6,4.0,41,0.00,,---,0.00,VWS V13.01,2013-08-15 09:26:00,
2013-08-15 02:32:00,82.2,56.2,27.17,East,94,4.5,8.1,41,0.00,,---,0.00,VWS V13.01,2013-08-15 09:32:00,
2013-08-15 02:37:00,82.0,56.0,27.17,ESE,106,6.3,6.3,41,0.00,,---,0.00,VWS V13.01,2013-08-15 09:37:00,
2013-08-15 02:42:00,82.0,56.0,27.17,East,92,3.1,4.9,41,0.00,,---,0.00,VWS V13.01,2013-08-15 09:42:00,
2013-08-15 02:47:00,81.9,56.5,27.17,East,97,2.7,6.3,42,0.00,,---,0.00,VWS V13.01,2013-08-15 09:47:00,
2013-08-15 02:52:00,81.7,56.4,27.17,East,98,5.8,8.3,42,0.00,,---,0.00,VWS V13.01,2013-08-15 09:52:00,
2013-08-15 02:57:00,81.7,56.4,27.17,ESE,106,4.9,7.2,42,0.00,,---,0.00,VWS V13.01,2013-08-15 09:57:00,
2013-08-15 03:02:00,81.5,56.9,27.17,East,93,5.4,5.4,43,0.00,,---,0.00,VWS V13.01,2013-08-15 10:02:00,
2013-08-15 03:08:00,81.3,56.7,27.17,East,92,4.9,5.8,43,0.00,,---,0.00,VWS V13.01,2013-08-15 10:08:00,
2013-08-15 03:13:00,81.1,56.5,27.17,East,97,3.6,5.4,43,0.00,,---,0.00,VWS V13.01,2013-08-15 10:13:00,
2013-08-15 03:18:00,81.0,56.4,27.17,East,89,0.0,4.9,43,0.00,,---,0.00,VWS V13.01,2013-08-15 10:18:00,
2013-08-15 03:24:00,81.0,56.4,27.17,East,92,0.0,0.0,43,0.00,,---,0.00,VWS V13.01,2013-08-15 10:24:00,
2013-08-15 03:29:00,80.8,56.2,27.17,East,92,0.0,0.0,43,0.00,,---,0.00,VWS V13.01,2013-08-15 10:29:00,
2013-08-15 03:34:00,80.6,56.1,27.17,East,92,0.0,0.0,43,0.00,,---,0.00,VWS V13.01,2013-08-15 10:34:00,
2013-08-15 03:39:00,80.6,56.1,27.17,East,92,0.0,0.0,43,0.00,,---,0.00,VWS V13.01,2013-08-15 10:39:00,
2013-08-15 03:45:00,80.2,56.4,27.17,East,92,0.0,0.0,44,0.00,,---,0.00,VWS V13.01,2013-08-15 10:45:00,
2013-08-15 03:50:00,80.1,56.2,27.17,East,92,0.0,0.0,44,0.00,,---,0.00,VWS V13.01,2013-08-15 10:50:00,
2013-08-15 03:55:00,79.9,56.0,27.17,East,92,0.0,0.0,44,0.00,,---,0.00,VWS V13.01,2013-08-15 10:55:00,
2013-08-15 04:01:00,79.9,56.7,27.17,East,92,0.0,0.0,45,0.00,,---,0.00,VWS V13.01,2013-08-15 11:01:00,
2013-08-15 04:06:00,79.7,56.5,27.17,East,92,0.0,0.0,45,0.00,,---,0.00,VWS V13.01,2013-08-15 11:06:00,
2013-08-15 04:11:00,79.5,56.3,27.17,East,92,0.0,0.0,45,0.00,,---,0.00,VWS V13.01,2013-08-15 11:11:00,
2013-08-15 04:16:00,79.5,57.0,27.17,East,92,0.0,0.0,46,0.00,,---,0.00,VWS V13.01,2013-08-15 11:16:00,
2013-08-15 04:22:00,79.3,56.8,27.20,East,92,0.0,0.0,46,0.00,,---,0.00,VWS V13.01,2013-08-15 11:22:00,
2013-08-15 04:27:00,79.2,56.6,27.20,East,92,0.0,0.0,46,0.00,,---,0.00,VWS V13.01,2013-08-15 11:27:00,
2013-08-15 04:32:00,79.2,57.2,27.20,East,92,0.0,0.0,47,0.00,,---,0.00,VWS V13.01,2013-08-15 11:32:00,
2013-08-15 04:37:00,79.0,57.0,27.20,East,92,0.0,0.0,47,0.00,,---,0.00,VWS V13.01,2013-08-15 11:37:00,
2013-08-15 04:42:00,79.0,57.0,27.20,East,92,0.0,0.0,47,0.00,,---,0.00,VWS V13.01,2013-08-15 11:42:00,
2013-08-15 04:47:00,78.8,56.9,27.20,East,92,0.0,0.0,47,0.00,,---,0.00,VWS V13.01,2013-08-15 11:47:00,
2013-08-15 04:53:00,78.6,57.3,27.20,East,92,0.0,0.0,48,0.00,,---,0.00,VWS V13.01,2013-08-15 11:53:00,
2013-08-15 04:58:00,78.6,57.3,27.20,East,92,0.0,0.0,48,0.00,,---,0.00,VWS V13.01,2013-08-15 11:58:00,
2013-08-15 05:03:00,78.6,57.3,27.20,East,92,0.0,0.0,48,0.00,,---,0.00,VWS V13.01,2013-08-15 12:03:00,
2013-08-15 05:09:00,78.4,57.1,27.20,East,92,0.0,0.0,48,0.00,,---,0.00,VWS V13.01,2013-08-15 12:09:00,
2013-08-15 05:14:00,78.6,57.3,27.20,East,92,0.0,0.0,48,0.00,,---,0.00,VWS V13.01,2013-08-15 12:14:00,
2013-08-15 05:19:00,78.6,57.3,27.20,East,92,0.0,2.7,48,0.00,,---,0.00,VWS V13.01,2013-08-15 12:19:00,
2013-08-15 05:24:00,78.6,57.3,27.20,East,92,2.7,5.4,48,0.00,,---,0.00,VWS V13.01,2013-08-15 12:24:00,
2013-08-15 05:29:00,78.6,57.3,27.20,ESE,103,0.0,4.9,48,0.00,,---,0.00,VWS V13.01,2013-08-15 12:29:00,
2013-08-15 05:34:00,78.8,56.9,27.20,ESE,107,5.8,5.8,47,0.00,,---,0.00,VWS V13.01,2013-08-15 12:34:00,
2013-08-15 05:40:00,78.8,56.9,27.20,East,97,0.0,5.8,47,0.00,,---,0.00,VWS V13.01,2013-08-15 12:40:00,
2013-08-15 05:45:00,78.8,57.5,27.20,ESE,109,3.6,5.4,48,0.00,,---,0.00,VWS V13.01,2013-08-15 12:45:00,
2013-08-15 05:50:00,79.0,57.6,27.20,East,89,4.0,4.0,48,0.00,,---,0.00,VWS V13.01,2013-08-15 12:50:00,
2013-08-15 05:55:00,79.0,57.6,27.20,East,79,3.1,4.5,48,0.00,,---,0.00,VWS V13.01,2013-08-15 12:55:00,
2013-08-15 06:00:00,79.0,58.2,27.20,East,90,3.1,4.9,49,0.00,,---,0.00,VWS V13.01,2013-08-15 13:00:00,
2013-08-15 06:05:00,79.0,58.2,27.23,East,89,0.0,4.9,49,0.00,,---,0.00,VWS V13.01,2013-08-15 13:05:00,
2013-08-15 06:10:00,79.2,58.4,27.23,SE,126,3.1,7.2,49,0.00,,---,0.00,VWS V13.01,2013-08-15 13:10:00,
2013-08-15 06:15:00,79.3,58.5,27.23,ESE,102,3.6,4.9,49,0.00,,---,0.00,VWS V13.01,2013-08-15 13:15:00,
2013-08-15 06:21:00,79.5,58.1,27.23,East,100,4.0,5.4,48,0.00,,---,0.00,VWS V13.01,2013-08-15 13:21:00,
2013-08-15 06:26:00,79.7,58.3,27.23,ESE,112,3.6,5.8,48,0.00,,---,0.00,VWS V13.01,2013-08-15 13:26:00,
2013-08-15 06:31:00,80.1,58.6,27.23,SE,126,4.9,5.8,48,0.00,,---,0.00,VWS V13.01,2013-08-15 13:31:00,
2013-08-15 06:36:00,80.2,58.8,27.23,East,99,3.1,7.6,48,0.00,,---,0.00,VWS V13.01,2013-08-15 13:36:00,
2013-08-15 06:41:00,80.2,58.8,27.23,SE,126,4.9,5.8,48,0.00,,---,0.00,VWS V13.01,2013-08-15 13:41:00,
2013-08-15 06:46:00,80.4,59.0,27.23,East,94,4.9,5.8,48,0.00,,---,0.00,VWS V13.01,2013-08-15 13:46:00,
2013-08-15 06:52:00,80.2,58.8,27.23,ENE,76,0.0,4.0,48,0.00,,---,0.00,VWS V13.01,2013-08-15 13:52:00,
2013-08-15 06:57:00,80.4,59.0,27.23,East,101,2.7,5.4,48,0.00,,---,0.00,VWS V13.01,2013-08-15 13:57:00,
2013-08-15 07:02:00,80.4,59.0,27.23,East,85,0.0,3.6,48,0.00,,---,0.00,VWS V13.01,2013-08-15 14:02:00,
2013-08-15 07:07:00,80.4,59.0,27.23,ENE,77,3.1,4.5,48,0.00,,---,0.00,VWS V13.01,2013-08-15 14:07:00,
2013-08-15 07:13:00,80.4,59.5,27.23,East,79,2.7,2.7,49,0.00,,---,0.00,VWS V13.01,2013-08-15 14:13:00,
2013-08-15 07:18:00,80.6,59.1,27.23,ENE,78,0.0,0.0,48,0.00,,---,0.00,VWS V13.01,2013-08-15 14:18:00,
2013-08-15 07:24:00,80.8,59.3,27.23,ENE,77,0.0,0.0,48,0.00,,---,0.00,VWS V13.01,2013-08-15 14:24:00,
2013-08-15 07:29:00,80.8,59.3,27.23,ENE,78,0.0,3.6,48,0.00,,---,0.00,VWS V13.01,2013-08-15 14:29:00,
2013-08-15 07:34:00,81.1,59.0,27.23,ENE,78,0.0,0.0,47,0.00,,---,0.00,VWS V13.01,2013-08-15 14:34:00,
2013-08-15 07:39:00,81.3,59.2,27.23,ENE,68,0.0,0.0,47,0.00,,---,0.00,VWS V13.01,2013-08-15 14:39:00,
2013-08-15 07:44:00,81.9,59.1,27.23,East,101,0.0,5.4,46,0.00,,---,0.00,VWS V13.01,2013-08-15 14:44:00,
2013-08-15 07:49:00,82.6,59.1,27.23,ESE,104,0.0,0.0,45,0.00,,---,0.00,VWS V13.01,2013-08-15 14:49:00,
2013-08-15 07:55:00,83.1,59.6,27.23,East,86,3.1,4.0,45,0.00,,---,0.00,VWS V13.01,2013-08-15 14:55:00,
2013-08-15 08:00:00,83.7,59.5,27.23,East,90,0.0,4.5,44,0.00,,---,0.00,VWS V13.01,2013-08-15 15:00:00,
2013-08-15 08:05:00,84.0,59.8,27.23,East,90,2.7,4.0,44,0.00,,---,0.00,VWS V13.01,2013-08-15 15:05:00,
2013-08-15 08:11:00,84.4,59.5,27.23,East,87,0.0,0.0,43,0.00,,---,0.00,VWS V13.01,2013-08-15 15:11:00,
2013-08-15 08:16:00,84.7,59.8,27.23,East,87,3.1,3.1,43,0.00,,---,0.00,VWS V13.01,2013-08-15 15:16:00,
2013-08-15 08:21:00,85.5,60.4,27.23,ENE,70,0.0,0.0,43,0.00,,---,0.00,VWS V13.01,2013-08-15 15:21:00,
2013-08-15 08:27:00,86.4,60.6,27.23,NE,46,0.0,0.0,42,0.00,,---,0.00,VWS V13.01,2013-08-15 15:27:00,
2013-08-15 08:32:00,87.1,60.5,27.23,East,99,4.9,4.9,41,0.00,,---,0.00,VWS V13.01,2013-08-15 15:32:00,
2013-08-15 08:37:00,88.0,60.7,27.23,East,91,3.1,6.3,40,0.00,,---,0.00,VWS V13.01,2013-08-15 15:37:00,
2013-08-15 08:42:00,88.7,60.6,27.23,East,88,8.1,8.1,39,0.00,,---,0.00,VWS V13.01,2013-08-15 15:42:00,
2013-08-15 08:48:00,89.1,60.9,27.23,East,80,0.0,0.0,39,0.00,,---,0.00,VWS V13.01,2013-08-15 15:48:00,
2013-08-15 08:53:00,89.2,60.3,27.23,East,101,4.9,5.4,38,0.00,,---,0.00,VWS V13.01,2013-08-15 15:53:00,
2013-08-15 08:58:00,89.6,60.7,27.23,East,93,4.9,7.6,38,0.00,,---,0.00,VWS V13.01,2013-08-15 15:58:00,
2013-08-15 09:04:00,90.1,61.1,27.23,SE,128,4.0,5.8,38,0.00,,---,0.00,VWS V13.01,2013-08-15 16:04:00,
2013-08-15 09:09:00,90.7,61.6,27.23,ESE,122,3.6,6.3,38,0.00,,---,0.00,VWS V13.01,2013-08-15 16:09:00,
2013-08-15 09:14:00,91.2,62.1,27.23,ESE,104,0.0,0.0,38,0.00,,---,0.00,VWS V13.01,2013-08-15 16:14:00,
2013-08-15 09:19:00,91.8,61.8,27.23,ENE,73,5.4,8.7,37,0.00,,---,0.00,VWS V13.01,2013-08-15 16:19:00,
2013-08-15 09:24:00,92.3,60.7,27.23,ESE,120,7.6,7.6,35,0.00,,---,0.00,VWS V13.01,2013-08-15 16:24:00,
2013-08-15 09:29:00,92.7,61.0,27.23,East,89,4.0,8.3,35,0.00,,---,0.00,VWS V13.01,2013-08-15 16:29:00,
2013-08-15 09:35:00,93.2,60.7,27.23,SE,131,6.3,8.7,34,0.00,,---,0.00,VWS V13.01,2013-08-15 16:35:00,
2013-08-15 09:40:00,93.6,60.2,27.23,SE,145,4.9,7.6,33,0.00,,---,0.00,VWS V13.01,2013-08-15 16:40:00,
2013-08-15 09:45:00,93.9,60.5,27.23,SE,125,6.3,8.7,33,0.00,,---,0.00,VWS V13.01,2013-08-15 16:45:00,
2013-08-15 09:50:00,94.3,59.9,27.23,SE,138,5.4,7.6,32,0.00,,---,0.00,VWS V13.01,2013-08-15 16:50:00,
2013-08-15 09:55:00,94.6,60.2,27.23,ESE,105,4.0,4.9,32,0.00,,---,0.00,VWS V13.01,2013-08-15 16:55:00,
2013-08-15 10:01:00,95.0,60.5,27.23,SE,134,5.8,8.3,32,0.00,,---,0.00,VWS V13.01,2013-08-15 17:01:00,
2013-08-15 10:06:00,95.4,60.0,27.23,ESE,103,3.6,6.3,31,0.00,,---,0.00,VWS V13.01,2013-08-15 17:06:00,
2013-08-15 10:11:00,95.9,60.4,27.23,ESE,123,4.9,8.3,31,0.00,,---,0.00,VWS V13.01,2013-08-15 17:11:00,
2013-08-15 10:16:00,95.9,59.5,27.23,ESE,112,4.0,5.8,30,0.00,,---,0.00,VWS V13.01,2013-08-15 17:16:00,
2013-08-15 10:22:00,96.1,59.7,27.23,ESE,118,4.0,8.1,30,0.00,,---,0.00,VWS V13.01,2013-08-15 17:22:00,
2013-08-15 10:27:00,96.4,60.0,27.23,SSE,160,2.7,5.4,30,0.00,,---,0.00,VWS V13.01,2013-08-15 17:27:00,
2013-08-15 10:32:00,96.8,60.3,27.23,SE,125,5.8,5.8,30,0.00,,---,0.00,VWS V13.01,2013-08-15 17:32:00,
2013-08-15 10:37:00,97.5,60.0,27.23,NE,56,0.0,5.8,29,0.00,,---,0.00,VWS V13.01,2013-08-15 17:37:00,
2013-08-15 10:42:00,97.5,60.0,27.23,West,273,3.1,4.9,29,0.00,,---,0.00,VWS V13.01,2013-08-15 17:42:00,
2013-08-15 10:49:00,97.0,59.5,27.23,ESE,114,4.9,5.8,29,0.00,,---,0.00,VWS V13.01,2013-08-15 17:49:00,
2013-08-15 10:54:00,97.9,60.2,27.20,East,89,5.8,5.8,29,0.00,,---,0.00,VWS V13.01,2013-08-15 17:54:00,
2013-08-15 10:59:00,98.4,59.7,27.20,ESE,117,0.0,3.6,28,0.00,,---,0.00,VWS V13.01,2013-08-15 17:59:00,
2013-08-15 11:05:00,97.9,59.3,27.20,SW,224,4.9,4.9,28,0.00,,---,0.00,VWS V13.01,2013-08-15 18:05:00,
2013-08-15 11:10:00,98.4,59.7,27.20,NNE,28,0.0,4.0,28,0.00,,---,0.00,VWS V13.01,2013-08-15 18:10:00,
2013-08-15 11:15:00,99.3,59.5,27.20,East,89,7.2,9.6,27,0.00,,---,0.00,VWS V13.01,2013-08-15 18:15:00,
2013-08-15 11:21:00,99.7,59.8,27.20,ENE,76,3.6,5.8,27,0.00,,---,0.00,VWS V13.01,2013-08-15 18:21:00,
2013-08-15 11:26:00,99.9,59.9,27.20,SSW,198,5.8,5.8,27,0.00,,---,0.00,VWS V13.01,2013-08-15 18:26:00,
2013-08-15 11:31:00,99.9,59.9,27.20,ESE,112,6.3,6.7,27,0.00,,---,0.00,VWS V13.01,2013-08-15 18:31:00,
2013-08-15 11:36:00,99.9,58.9,27.20,NNE,17,6.3,6.3,26,0.00,,---,0.00,VWS V13.01,2013-08-15 18:36:00,
2013-08-15 11:42:00,99.3,59.5,27.20,NNE,20,0.0,0.0,27,0.00,,---,0.00,VWS V13.01,2013-08-15 18:42:00,
2013-08-15 11:47:00,99.9,59.9,27.20,East,88,2.2,5.8,27,0.00,,---,0.00,VWS V13.01,2013-08-15 18:47:00,
2013-08-15 11:52:00,100.0,60.1,27.20,ENE,69,4.0,6.3,27,0.00,,---,0.00,VWS V13.01,2013-08-15 18:52:00,
2013-08-15 11:58:00,99.5,58.6,27.20,North,357,2.7,2.7,26,0.00,,---,0.00,VWS V13.01,2013-08-15 18:58:00,
2013-08-15 12:03:00,99.0,58.1,27.20,NNW,344,0.0,0.0,26,0.00,,---,0.00,VWS V13.01,2013-08-15 19:03:00,
2013-08-15 12:08:00,100.0,60.1,27.20,SSW,208,4.0,6.3,27,0.00,,---,0.00,VWS V13.01,2013-08-15 19:08:00,
2013-08-15 12:13:00,100.8,59.6,27.20,SW,224,6.3,7.6,26,0.00,,---,0.00,VWS V13.01,2013-08-15 19:13:00,
2013-08-15 12:18:00,100.8,59.6,27.20,WSW,254,2.7,6.3,26,0.00,,---,0.00,VWS V13.01,2013-08-15 19:18:00,
2013-08-15 12:25:00,101.1,59.9,27.20,WNW,283,4.5,8.3,26,0.00,,---,0.00,VWS V13.01,2013-08-15 19:25:00,
2013-08-15 12:30:00,101.7,60.4,27.20,ENE,75,2.7,6.3,26,0.00,,---,0.00,VWS V13.01,2013-08-15 19:30:00,
2013-08-15 12:36:00,102.2,59.7,27.17,East,86,4.0,4.0,25,0.00,,---,0.00,VWS V13.01,2013-08-15 19:36:00,
2013-08-15 12:41:00,102.2,59.7,27.17,ENE,72,0.0,0.0,25,0.00,,---,0.00,VWS V13.01,2013-08-15 19:41:00,
2013-08-15 12:46:00,101.7,59.3,27.17,NW,306,4.0,4.0,25,0.00,,---,0.00,VWS V13.01,2013-08-15 19:46:00,
2013-08-15 12:51:00,101.3,59.0,27.17,WNW,302,4.0,5.4,25,0.00,,---,0.00,VWS V13.01,2013-08-15 19:51:00,
2013-08-15 12:56:00,101.1,58.8,27.17,West,267,0.0,4.9,25,0.00,,---,0.00,VWS V13.01,2013-08-15 19:56:00,
2013-08-15 13:02:00,100.8,58.5,27.17,WNW,296,3.6,3.6,25,0.00,,---,0.00,VWS V13.01,2013-08-15 20:02:00,
2013-08-15 13:08:00,100.9,58.7,27.17,WNW,296,0.0,0.0,25,0.00,,---,0.00,VWS V13.01,2013-08-15 20:08:00,
2013-08-15 13:13:00,101.1,58.8,27.17,NW,317,0.0,3.6,25,0.00,,---,0.00,VWS V13.01,2013-08-15 20:13:00,
2013-08-15 13:18:00,101.5,59.1,27.17,SE,141,5.4,7.6,25,0.00,,---,0.00,VWS V13.01,2013-08-15 20:18:00,
2013-08-15 13:23:00,102.4,59.9,27.17,NNE,29,0.0,4.0,25,0.00,,---,0.00,VWS V13.01,2013-08-15 20:23:00,
2013-08-15 13:29:00,102.9,60.3,27.17,ESE,105,5.8,6.3,25,0.00,,---,0.00,VWS V13.01,2013-08-15 20:29:00,
2013-08-15 13:34:00,103.6,61.0,27.17,SSW,207,0.0,6.3,25,0.00,,---,0.00,VWS V13.01,2013-08-15 20:34:00,
2013-08-15 13:39:00,103.8,61.1,27.17,SSW,197,7.6,8.7,25,0.00,,---,0.00,VWS V13.01,2013-08-15 20:39:00,
2013-08-15 13:45:00,103.6,59.8,27.17,WSW,238,5.4,8.7,24,0.00,,---,0.00,VWS V13.01,2013-08-15 20:45:00,
2013-08-15 13:50:00,103.8,60.0,27.17,West,259,5.4,8.7,24,0.00,,---,0.00,VWS V13.01,2013-08-15 20:50:00,
2013-08-15 13:55:00,103.3,58.3,27.14,West,271,2.2,8.1,23,0.00,,---,0.00,VWS V13.01,2013-08-15 20:55:00,
2013-08-15 14:01:00,103.6,59.8,27.14,South,184,8.3,8.3,24,0.00,,---,0.00,VWS V13.01,2013-08-15 21:01:00,
2013-08-15 14:06:00,104.4,58.0,27.14,WSW,251,7.6,7.6,22,0.00,,---,0.00,VWS V13.01,2013-08-15 21:06:00,
2013-08-15 14:11:00,103.8,58.8,27.14,WNW,282,0.0,5.4,23,0.00,,---,0.00,VWS V13.01,2013-08-15 21:11:00,
2013-08-15 14:16:00,103.5,58.5,27.14,WSW,244,3.1,6.7,23,0.00,,---,0.00,VWS V13.01,2013-08-15 21:16:00,
2013-08-15 14:22:00,104.5,58.1,27.14,SSW,199,2.2,5.8,22,0.00,,---,0.00,VWS V13.01,2013-08-15 21:22:00,
2013-08-15 14:27:00,104.7,57.0,27.14,WSW,247,0.0,4.9,21,0.00,,---,0.00,VWS V13.01,2013-08-15 21:27:00,
2013-08-15 14:32:00,104.2,56.5,27.14,West,270,0.0,3.6,21,0.00,,---,0.00,VWS V13.01,2013-08-15 21:32:00,
2013-08-15 14:38:00,104.4,56.7,27.14,WSW,254,0.0,5.8,21,0.00,,---,0.00,VWS V13.01,2013-08-15 21:38:00,
2013-08-15 14:43:00,104.4,56.7,27.14,West,262,5.8,8.3,21,0.00,,---,0.00,VWS V13.01,2013-08-15 21:43:00,
2013-08-15 14:48:00,104.2,55.2,27.14,WNW,286,6.3,8.7,20,0.00,,---,0.00,VWS V13.01,2013-08-15 21:48:00,
2013-08-15 14:54:00,103.8,56.2,27.14,NNW,329,3.1,6.3,21,0.00,,---,0.00,VWS V13.01,2013-08-15 21:54:00,
2013-08-15 14:59:00,103.3,55.8,27.14,NNE,14,2.7,8.7,21,0.00,,---,0.00,VWS V13.01,2013-08-15 21:59:00,
2013-08-15 15:04:00,103.1,55.6,27.14,WNW,296,5.8,9.6,21,0.00,,---,0.00,VWS V13.01,2013-08-15 22:04:00,
2013-08-15 15:09:00,103.3,55.8,27.11,WNW,291,0.0,5.4,21,0.00,,---,0.00,VWS V13.01,2013-08-15 22:09:00,
2013-08-15 15:14:00,103.8,56.2,27.11,WNW,299,3.1,7.6,21,0.00,,---,0.00,VWS V13.01,2013-08-15 22:14:00,
2013-08-15 15:19:00,103.6,54.7,27.11,NW,318,0.0,0.0,20,0.00,,---,0.00,VWS V13.01,2013-08-15 22:19:00,
2013-08-15 15:25:00,104.0,55.0,27.11,WNW,298,4.0,4.0,20,0.00,,---,0.00,VWS V13.01,2013-08-15 22:25:00,
2013-08-15 15:30:00,104.2,55.2,27.11,NW,306,0.0,0.0,20,0.00,,---,0.00,VWS V13.01,2013-08-15 22:30:00,
2013-08-15 15:35:00,103.8,54.9,27.11,WSW,248,0.0,5.4,20,0.00,,---,0.00,VWS V13.01,2013-08-15 22:35:00,
2013-08-15 15:40:00,104.2,55.2,27.11,WNW,294,5.8,7.6,20,0.00,,---,0.00,VWS V13.01,2013-08-15 22:40:00,
2013-08-15 15:46:00,103.8,54.9,27.11,WNW,288,6.3,6.3,20,0.00,,---,0.00,VWS V13.01,2013-08-15 22:46:00,
2013-08-15 15:51:00,104.2,53.8,27.11,SSW,207,0.0,2.2,19,0.00,,---,0.00,VWS V13.01,2013-08-15 22:51:00,
2013-08-15 15:56:00,104.5,54.1,27.11,West,264,0.0,5.8,19,0.00,,---,0.00,VWS V13.01,2013-08-15 22:56:00,
2013-08-15 16:01:00,104.7,54.2,27.11,WNW,286,6.3,6.3,19,0.00,,---,0.00,VWS V13.01,2013-08-15 23:01:00,
2013-08-15 16:07:00,104.7,54.2,27.11,SW,226,0.0,4.9,19,0.00,,---,0.00,VWS V13.01,2013-08-15 23:07:00,
2013-08-15 16:12:00,104.4,53.9,27.11,NNW,341,0.0,4.0,19,0.00,,---,0.00,VWS V13.01,2013-08-15 23:12:00,
2013-08-15 16:17:00,104.7,54.2,27.11,West,273,0.0,2.7,19,0.00,,---,0.00,VWS V13.01,2013-08-15 23:17:00,
2013-08-15 16:22:00,104.9,54.4,27.11,West,265,5.8,5.8,19,0.00,,---,0.00,VWS V13.01,2013-08-15 23:22:00,
2013-08-15 16:27:00,105.3,53.2,27.11,SSW,203,0.0,8.7,18,0.00,,---,0.00,VWS V13.01,2013-08-15 23:27:00,
2013-08-15 16:32:00,105.1,53.0,27.11,WSW,242,5.8,7.6,18,0.00,,---,0.00,VWS V13.01,2013-08-15 23:32:00,
2013-08-15 16:38:00,104.9,52.9,27.11,SSW,203,4.0,5.8,18,0.00,,---,0.00,VWS V13.01,2013-08-15 23:38:00,
2013-08-15 16:43:00,104.9,52.9,27.11,North,353,11.0,11.0,18,0.00,,---,0.00,VWS V13.01,2013-08-15 23:43:00,
2013-08-15 16:48:00,104.5,51.0,27.11,WNW,303,2.7,10.1,17,0.00,,---,0.00,VWS V13.01,2013-08-15 23:48:00,
2013-08-15 16:53:00,103.8,52.0,27.11,NW,304,2.2,3.6,18,0.00,,---,0.00,VWS V13.01,2013-08-15 23:53:00,
2013-08-15 16:58:00,103.8,53.5,27.11,SSW,200,0.0,6.3,19,0.00,,---,0.00,VWS V13.01,2013-08-15 23:58:00,
2013-08-15 17:05:00,103.8,52.0,27.11,NW,309,0.0,0.0,18,0.00,,---,0.00,VWS V13.01,2013-08-16 00:05:00,
2013-08-15 17:10:00,103.5,51.7,27.11,North,4,0.0,0.0,18,0.00,,---,0.00,VWS V13.01,2013-08-16 00:10:00,
2013-08-15 17:16:00,102.9,51.3,27.11,NNW,339,0.0,0.0,18,0.00,,---,0.00,VWS V13.01,2013-08-16 00:16:00,
2013-08-15 17:21:00,102.9,51.3,27.11,NNW,346,0.0,0.0,18,0.00,,---,0.00,VWS V13.01,2013-08-16 00:21:00,
2013-08-15 17:26:00,102.7,51.1,27.11,NNW,346,0.0,0.0,18,0.00,,---,0.00,VWS V13.01,2013-08-16 00:26:00,
2013-08-15 17:32:00,102.7,51.1,27.11,NW,321,0.0,0.0,18,0.00,,---,0.00,VWS V13.01,2013-08-16 00:32:00,
2013-08-15 17:37:00,102.4,50.8,27.08,WNW,286,0.0,5.4,18,0.00,,---,0.00,VWS V13.01,2013-08-16 00:37:00,
2013-08-15 17:42:00,102.2,50.7,27.08,NW,306,0.0,0.0,18,0.00,,---,0.00,VWS V13.01,2013-08-16 00:42:00,
2013-08-15 17:47:00,101.8,50.4,27.08,NW,306,0.0,0.0,18,0.00,,---,0.00,VWS V13.01,2013-08-16 00:47:00,
2013-08-15 17:52:00,101.7,50.3,27.11,NNE,16,2.7,2.7,18,0.00,,---,0.00,VWS V13.01,2013-08-16 00:52:00,
2013-08-15 17:57:00,101.5,50.1,27.11,ENE,77,0.0,0.0,18,0.00,,---,0.00,VWS V13.01,2013-08-16 00:57:00,
2013-08-15 18:02:00,101.1,49.8,27.11,ENE,77,0.0,0.0,18,0.00,,---,0.00,VWS V13.01,2013-08-16 01:02:00,
2013-08-15 18:08:00,100.8,48.0,27.11,ENE,74,0.0,0.0,17,0.00,,---,0.00,VWS V13.01,2013-08-16 01:08:00,
2013-08-15 18:13:00,100.6,49.4,27.11,ENE,74,0.0,0.0,18,0.00,,---,0.00,VWS V13.01,2013-08-16 01:13:00,
2013-08-15 18:18:00,100.4,49.3,27.11,North,7,3.6,3.6,18,0.00,,---,0.00,VWS V13.01,2013-08-16 01:18:00,
2013-08-15 18:24:00,100.2,49.1,27.11,North,7,0.0,0.0,18,0.00,,---,0.00,VWS V13.01,2013-08-16 01:24:00,
2013-08-15 18:29:00,99.9,48.8,27.11,North,7,0.0,0.0,18,0.00,,---,0.00,VWS V13.01,2013-08-16 01:29:00,
2013-08-15 18:34:00,99.7,48.7,27.11,North,11,0.0,0.0,18,0.00,,---,0.00,VWS V13.01,2013-08-16 01:34:00,
2013-08-15 18:39:00,99.7,48.7,27.11,North,11,0.0,0.0,18,0.00,,---,0.00,VWS V13.01,2013-08-16 01:39:00,
2013-08-15 18:44:00,99.5,48.5,27.11,NNE,23,3.6,3.6,18,0.00,,---,0.00,VWS V13.01,2013-08-16 01:44:00,
2013-08-15 18:50:00,97.5,53.5,27.11,NNW,332,4.0,8.7,23,0.00,,---,0.00,VWS V13.01,2013-08-16 01:50:00,
2013-08-15 18:55:00,95.2,54.9,27.11,NW,310,8.1,12.8,26,0.00,,---,0.00,VWS V13.01,2013-08-16 01:55:00,
2013-08-15 19:00:00,93.9,54.9,27.11,WNW,298,2.7,14.5,27,0.00,,---,0.00,VWS V13.01,2013-08-16 02:00:00,
2013-08-15 19:06:00,93.4,54.4,27.14,WNW,289,5.8,5.8,27,0.00,,---,0.00,VWS V13.01,2013-08-16 02:06:00,
2013-08-15 19:11:00,92.8,55.0,27.14,WNW,286,4.0,5.8,28,0.00,,---,0.00,VWS V13.01,2013-08-16 02:11:00,
2013-08-15 19:16:00,92.8,55.0,27.14,NW,319,4.0,10.5,28,0.00,,---,0.00,VWS V13.01,2013-08-16 02:16:00,
2013-08-15 19:21:00,92.5,54.7,27.14,WNW,297,9.2,9.2,28,0.00,,---,0.00,VWS V13.01,2013-08-16 02:21:00,
2013-08-15 19:26:00,92.5,54.7,27.14,North,350,5.4,7.6,28,0.00,,---,0.00,VWS V13.01,2013-08-16 02:26:00,
2013-08-15 19:32:00,92.5,54.7,27.14,NNW,347,3.6,7.2,28,0.00,,---,0.00,VWS V13.01,2013-08-16 02:32:00,
2013-08-15 19:37:00,92.3,54.5,27.14,NW,318,2.2,6.3,28,0.00,,---,0.00,VWS V13.01,2013-08-16 02:37:00,
2013-08-15 19:42:00,91.8,55.0,27.14,NW,316,5.8,5.8,29,0.00,,---,0.00,VWS V13.01,2013-08-16 02:42:00,
2013-08-15 19:48:00,91.4,54.7,27.14,NW,307,5.4,5.4,29,0.00,,---,0.00,VWS V13.01,2013-08-16 02:48:00,
2013-08-15 19:53:00,91.4,54.7,27.14,NW,308,4.0,5.4,29,0.00,,---,0.00,VWS V13.01,2013-08-16 02:53:00,
2013-08-15 19:58:00,91.2,55.5,27.14,NW,304,0.0,0.0,30,0.00,,---,0.00,VWS V13.01,2013-08-16 02:58:00,
2013-08-15 20:04:00,91.2,55.5,27.14,West,279,4.0,4.0,30,0.00,,---,0.00,VWS V13.01,2013-08-16 03:04:00,
2013-08-15 20:09:00,91.0,55.3,27.14,West,280,7.6,8.1,30,0.00,,---,0.00,VWS V13.01,2013-08-16 03:09:00,
2013-08-15 20:14:00,90.7,55.0,27.14,WNW,284,0.0,5.4,30,0.00,,---,0.00,VWS V13.01,2013-08-16 03:14:00,
2013-08-15 20:20:00,90.7,54.1,27.14,NW,307,0.0,0.0,29,0.00,,---,0.00,VWS V13.01,2013-08-16 03:20:00,
2013-08-15 20:25:00,90.9,54.2,27.14,NW,307,0.0,0.0,29,0.00,,---,0.00,VWS V13.01,2013-08-16 03:25:00,
2013-08-15 20:30:00,90.9,54.2,27.14,WNW,295,0.0,0.0,29,0.00,,---,0.00,VWS V13.01,2013-08-16 03:30:00,
2013-08-15 20:35:00,90.7,54.1,27.17,WNW,296,5.4,5.4,29,0.00,,---,0.00,VWS V13.01,2013-08-16 03:35:00,
2013-08-15 20:41:00,90.5,53.9,27.17,NW,308,0.0,7.2,29,0.00,,---,0.00,VWS V13.01,2013-08-16 03:41:00,
2013-08-15 20:46:00,90.5,53.9,27.17,WNW,290,0.0,5.8,29,0.00,,---,0.00,VWS V13.01,2013-08-16 03:46:00,
2013-08-15 20:51:00,90.3,53.8,27.17,West,279,0.0,0.0,29,0.00,,---,0.00,VWS V13.01,2013-08-16 03:51:00,
2013-08-15 20:57:00,90.1,53.6,27.17,West,279,0.0,0.0,29,0.00,,---,0.00,VWS V13.01,2013-08-16 03:57:00,
2013-08-15 21:01:00,90.1,53.6,27.17,West,279,0.0,0.0,29,0.00,,---,0.00,VWS V13.01,2013-08-16 04:01:00,
2013-08-15 21:02:00,90.1,53.6,27.17,West,279,0.0,0.0,29,0.00,,---,0.00,VWS V13.01,2013-08-16 04:02:00,
2013-08-15 21:03:00,90.0,53.5,27.17,West,279,0.0,0.0,29,0.00,,---,0.00,VWS V13.01,2013-08-16 04:03:00,
2013-08-15 21:08:00,90.0,53.5,27.17,West,279,0.0,0.0,29,0.00,,---,0.00,VWS V13.01,2013-08-16 04:08:00,
2013-08-15 21:13:00,89.8,53.3,27.17,West,279,0.0,0.0,29,0.00,,---,0.00,VWS V13.01,2013-08-16 04:13:00,
2013-08-15 21:19:00,89.6,53.2,27.17,West,279,0.0,0.0,29,0.00,,---,0.00,VWS V13.01,2013-08-16 04:19:00,
2013-08-15 21:24:00,89.4,53.9,27.17,West,279,0.0,0.0,30,0.00,,---,0.00,VWS V13.01,2013-08-16 04:24:00,
2013-08-15 21:29:00,89.6,53.2,27.17,West,279,0.0,0.0,29,0.00,,---,0.00,VWS V13.01,2013-08-16 04:29:00,
2013-08-15 21:35:00,89.6,53.2,27.17,West,279,0.0,0.0,29,0.00,,---,0.00,VWS V13.01,2013-08-16 04:35:00,
2013-08-15 21:40:00,89.6,53.2,27.17,West,279,0.0,0.0,29,0.00,,---,0.00,VWS V13.01,2013-08-16 04:40:00,
2013-08-15 21:45:00,89.6,53.2,27.17,West,279,0.0,0.0,29,0.00,,---,0.00,VWS V13.01,2013-08-16 04:45:00,
2013-08-15 21:50:00,89.4,53.9,27.17,West,279,0.0,0.0,30,0.00,,---,0.00,VWS V13.01,2013-08-16 04:50:00,
2013-08-15 21:56:00,89.2,53.8,27.17,West,279,0.0,0.0,30,0.00,,---,0.00,VWS V13.01,2013-08-16 04:56:00,
2013-08-15 22:01:00,88.9,53.5,27.17,West,279,0.0,0.0,30,0.00,,---,0.00,VWS V13.01,2013-08-16 05:01:00,
2013-08-15 22:06:00,88.7,53.3,27.17,West,279,0.0,0.0,30,0.00,,---,0.00,VWS V13.01,2013-08-16 05:06:00,
2013-08-15 22:12:00,88.5,53.2,27.17,West,279,0.0,0.0,30,0.00,,---,0.00,VWS V13.01,2013-08-16 05:12:00,
2013-08-15 22:19:00,88.3,53.0,27.17,West,279,0.0,0.0,30,0.00,,---,0.00,VWS V13.01,2013-08-16 05:19:00,
2013-08-15 22:25:00,88.2,52.8,27.17,West,279,0.0,0.0,30,0.00,,---,0.00,VWS V13.01,2013-08-16 05:25:00,
2013-08-15 22:30:00,88.2,52.8,27.17,West,279,0.0,0.0,30,0.00,,---,0.00,VWS V13.01,2013-08-16 05:30:00,
2013-08-15 22:35:00,88.0,52.7,27.17,West,279,0.0,0.0,30,0.00,,---,0.00,VWS V13.01,2013-08-16 05:35:00,
2013-08-15 22:41:00,87.8,52.5,27.17,West,279,0.0,0.0,30,0.00,,---,0.00,VWS V13.01,2013-08-16 05:41:00,
2013-08-15 22:46:00,87.8,52.5,27.17,West,279,0.0,0.0,30,0.00,,---,0.00,VWS V13.01,2013-08-16 05:46:00,
2013-08-15 22:51:00,87.6,53.3,27.17,West,279,0.0,0.0,31,0.00,,---,0.00,VWS V13.01,2013-08-16 05:51:00,
2013-08-15 22:56:00,87.6,53.3,27.17,West,279,0.0,0.0,31,0.00,,---,0.00,VWS V13.01,2013-08-16 05:56:00,
2013-08-15 23:02:00,87.4,53.1,27.17,West,279,0.0,0.0,31,0.00,,---,0.00,VWS V13.01,2013-08-16 06:02:00,
2013-08-15 23:07:00,87.3,53.0,27.17,West,279,0.0,0.0,31,0.00,,---,0.00,VWS V13.01,2013-08-16 06:07:00,
2013-08-15 23:12:00,87.1,52.8,27.17,ENE,78,2.7,4.0,31,0.00,,---,0.00,VWS V13.01,2013-08-16 06:12:00,
2013-08-15 23:17:00,87.1,52.8,27.17,East,84,0.0,0.0,31,0.00,,---,0.00,VWS V13.01,2013-08-16 06:17:00,
2013-08-15 23:23:00,86.9,52.7,27.17,East,98,0.0,3.1,31,0.00,,---,0.00,VWS V13.01,2013-08-16 06:23:00,
2013-08-15 23:28:00,86.7,52.5,27.17,ENE,69,4.0,5.4,31,0.00,,---,0.00,VWS V13.01,2013-08-16 06:28:00,
2013-08-15 23:33:00,86.7,52.5,27.17,East,93,3.1,5.8,31,0.00,,---,0.00,VWS V13.01,2013-08-16 06:33:00,
2013-08-15 23:39:00,86.5,52.3,27.17,East,92,3.1,6.3,31,0.00,,---,0.00,VWS V13.01,2013-08-16 06:39:00,
2013-08-15 23:44:00,86.5,52.3,27.17,East,95,4.0,5.4,31,0.00,,---,0.00,VWS V13.01,2013-08-16 06:44:00,
2013-08-15 23:49:00,86.5,52.3,27.17,ESE,114,3.6,5.8,31,0.00,,---,0.00,VWS V13.01,2013-08-16 06:49:00,
2013-08-15 23:54:00,86.5,52.3,27.17,ESE,104,4.9,4.9,31,0.00,,---,0.00,VWS V13.01,2013-08-16 06:54:00,
2013-08-15 23:59:00,86.4,52.2,27.17,East,94,0.0,4.9,31,0.00,,---,0.00,VWS V13.01,2013-08-16 06:59:00,